Time;durP1;ratioP1;P1;durP2;ratioP2;P2;SDS_P1;SDS_P2;PMS_P1;PMS_P2;Temp;Humidity;BMP_temperature;BMP_pressure;BME280_temperature;BME280_humidity;BME280_pressure;Samples;Min_cycle;Max_cycle;Signal;HPM_P1;HPM_P2
2021/06/22 00:01:04;;;;;;;9.57;3.47;;;;;;;20.66;68.79;99944.44;4977995;28;20074;-78
2021/06/22 00:03:30;;;;;;;5.85;3.45;;;;;;;20.66;68.66;99948.94;4958634;28;20050;-78
2021/06/22 00:05:55;;;;;;;4.63;3.28;;;;;;;20.69;68.82;99948.78;4943263;28;20051;-78
2021/06/22 00:08:20;;;;;;;7.95;3.58;;;;;;;20.64;68.94;99946.34;4977574;28;20066;-78
2021/06/22 00:10:46;;;;;;;6.45;3.30;;;;;;;20.65;69.35;99955.28;4958425;28;20659;-78
2021/06/22 00:13:11;;;;;;;5.20;3.83;;;;;;;20.55;69.40;99958.47;4976997;28;20122;-78
2021/06/22 00:15:37;;;;;;;6.10;4.35;;;;;;;20.54;69.09;99950.50;4977188;28;20027;-78
2021/06/22 00:18:02;;;;;;;5.60;4.35;;;;;;;20.54;69.53;99951.38;4958849;28;20455;-78
2021/06/22 00:20:28;;;;;;;5.43;4.80;;;;;;;20.51;69.52;99953.31;4975891;28;20380;-78
2021/06/22 00:22:54;;;;;;;6.57;4.95;;;;;;;20.45;70.00;99962.56;4975085;28;20042;-78
2021/06/22 00:25:21;;;;;;;8.88;6.07;;;;;;;20.40;69.65;99974.50;4974981;28;20081;-78
2021/06/22 00:27:48;;;;;;;7.80;6.15;;;;;;;20.38;69.89;99977.25;4977488;28;20043;-78
2021/06/22 00:30:14;;;;;;;8.10;7.03;;;;;;;20.32;70.10;99966.91;4963193;28;20038;-78
2021/06/22 00:32:40;;;;;;;7.50;6.22;;;;;;;20.31;69.99;99975.91;4959808;28;20035;-78
2021/06/22 00:35:07;;;;;;;8.63;7.40;;;;;;;20.18;70.24;99964.97;4957769;28;20038;-78
2021/06/22 00:37:32;;;;;;;12.95;8.20;;;;;;;20.11;69.88;99961.75;4976176;28;20085;-78
2021/06/22 00:39:58;;;;;;;9.43;7.85;;;;;;;20.03;69.48;99965.81;4974814;28;20038;-78
2021/06/22 00:42:23;;;;;;;9.43;7.47;;;;;;;20.02;69.54;99969.47;4957343;28;20035;-78
2021/06/22 00:44:52;;;;;;;9.57;8.05;;;;;;;19.92;69.43;99972.63;4943092;28;20031;-78
2021/06/22 00:47:21;;;;;;;15.95;8.15;;;;;;;19.85;69.42;99978.38;4936797;28;20035;-78
2021/06/22 00:49:48;;;;;;;12.55;7.40;;;;;;;19.83;69.33;99985.63;4946703;28;20039;-78
2021/06/22 00:52:18;;;;;;;10.95;8.85;;;;;;;19.74;69.56;99984.31;4976372;28;20042;-78
2021/06/22 00:54:44;;;;;;;9.90;8.65;;;;;;;19.73;69.36;99985.28;4965892;28;20466;-78
2021/06/22 00:57:12;;;;;;;10.00;8.68;;;;;;;19.71;69.37;99984.47;4958142;28;20023;-78
2021/06/22 00:59:37;;;;;;;12.57;8.90;;;;;;;19.62;69.79;99982.22;4958273;28;20063;-78
2021/06/22 01:02:04;;;;;;;11.52;8.65;;;;;;;19.65;69.35;99982.97;4957462;28;20514;-78
2021/06/22 01:04:31;;;;;;;11.63;8.88;;;;;;;19.59;69.76;99993.97;4957387;28;20062;-78
2021/06/22 01:07:16;;;;;;;10.98;9.38;;;;;;;19.41;69.82;100008.28;4950931;28;20414;-78
2021/06/22 01:09:43;;;;;;;11.23;7.65;;;;;;;19.42;69.62;100010.03;4974437;28;20846;-78
2021/06/22 01:12:09;;;;;;;10.77;7.85;;;;;;;19.38;70.10;100014.66;4975429;28;20038;-78
2021/06/22 01:14:41;;;;;;;10.05;7.97;;;;;;;19.29;70.10;100025.00;4958369;28;20082;-78
2021/06/22 01:17:07;;;;;;;8.85;7.22;;;;;;;19.29;70.21;100039.22;4974710;28;20105;-78
2021/06/22 01:19:34;;;;;;;12.13;8.77;;;;;;;19.29;70.40;100035.69;4958196;28;20511;-78
2021/06/22 01:22:01;;;;;;;12.25;8.18;;;;;;;19.16;70.68;100033.63;4956813;28;20039;-78
2021/06/22 01:24:40;;;;;;;10.48;8.43;;;;;;;19.16;71.02;100041.63;4970931;28;20706;-78
2021/06/22 01:27:07;;;;;;;11.45;8.27;;;;;;;19.14;71.13;100038.16;4974650;28;20058;-78
2021/06/22 01:29:32;;;;;;;10.93;8.43;;;;;;;19.11;71.12;100032.97;4956621;28;20462;-78
2021/06/22 01:31:59;;;;;;;9.75;7.55;;;;;;;19.12;71.06;100026.66;4975343;28;20027;-78
2021/06/22 01:34:29;;;;;;;10.10;8.02;;;;;;;19.09;71.22;100021.47;4974841;28;20019;-78
2021/06/22 01:36:58;;;;;;;10.20;8.10;;;;;;;19.09;71.73;100028.66;4957853;28;20101;-78
2021/06/22 01:39:29;;;;;;;10.65;8.50;;;;;;;19.00;71.95;100024.63;4957347;28;20058;-78
2021/06/22 01:41:57;;;;;;;11.05;7.68;;;;;;;18.97;72.61;100022.09;4944766;28;20030;-78
2021/06/22 01:44:32;;;;;;;10.45;8.48;;;;;;;18.92;72.51;100022.31;4946785;28;20035;-78
2021/06/22 01:46:57;;;;;;;9.82;7.85;;;;;;;18.91;73.06;100019.72;4974544;28;20062;-78
2021/06/22 01:49:23;;;;;;;8.88;7.35;;;;;;;18.85;72.97;100022.69;4956676;28;20091;-78
2021/06/22 01:51:49;;;;;;;11.57;8.80;;;;;;;18.75;73.72;100035.63;4956438;28;20038;-78
2021/06/22 01:54:14;;;;;;;10.85;9.13;;;;;;;18.74;74.14;100037.41;4956943;28;20035;-78
2021/06/22 01:56:47;;;;;;;10.85;9.25;;;;;;;18.69;74.91;100060.81;4940002;28;20038;-78
2021/06/22 01:59:18;;;;;;;9.20;7.70;;;;;;;18.66;74.88;100044.94;4957587;28;20033;-77
2021/06/22 02:01:56;;;;;;;11.85;10.25;;;;;;;18.71;75.01;100047.38;4940792;28;20058;-78
2021/06/22 02:04:35;;;;;;;14.23;10.18;;;;;;;18.67;75.20;100053.81;4955768;28;20037;-78
2021/06/22 02:07:06;;;;;;;12.02;9.80;;;;;;;18.70;75.47;100077.72;4959427;28;20039;-78
2021/06/22 02:09:34;;;;;;;13.13;9.23;;;;;;;18.71;75.57;100083.00;4957643;28;20400;-78
2021/06/22 02:12:02;;;;;;;9.80;8.30;;;;;;;18.80;75.05;100074.56;4940892;28;20136;-78
2021/06/22 02:14:30;;;;;;;10.55;9.43;;;;;;;18.83;75.49;100097.63;4941728;28;20035;-78
2021/06/22 02:16:56;;;;;;;11.18;9.25;;;;;;;18.79;75.72;100083.53;4955889;28;20465;-78
2021/06/22 02:19:22;;;;;;;12.23;10.07;;;;;;;18.80;75.62;100079.03;4973292;28;20110;-78
2021/06/22 02:21:47;;;;;;;11.77;10.05;;;;;;;18.81;75.75;100092.34;4974658;28;20094;-78
2021/06/22 02:24:16;;;;;;;10.63;9.13;;;;;;;18.80;75.84;100103.97;4955860;28;20042;-78
2021/06/22 02:26:42;;;;;;;12.23;10.43;;;;;;;18.74;76.15;100101.56;4974223;28;20047;-78
2021/06/22 02:29:07;;;;;;;11.68;10.15;;;;;;;18.76;75.97;100115.75;4974286;28;20062;-78
2021/06/22 02:31:33;;;;;;;14.02;9.90;;;;;;;18.69;76.26;100124.09;4956126;28;20041;-78
2021/06/22 02:34:01;;;;;;;12.90;9.95;;;;;;;18.82;75.83;100125.31;4950865;28;20023;-78
2021/06/22 02:36:27;;;;;;;13.57;11.25;;;;;;;18.79;76.29;100137.00;4944930;28;20110;-78
2021/06/22 02:38:53;;;;;;;12.85;10.90;;;;;;;18.77;75.93;100138.00;4957032;28;20034;-78
2021/06/22 02:41:19;;;;;;;13.40;10.75;;;;;;;18.88;75.40;100141.03;4973171;28;20094;-78
2021/06/22 02:43:49;;;;;;;11.90;10.57;;;;;;;18.74;76.32;100144.34;4955381;28;20515;-78
2021/06/22 02:46:15;;;;;;;13.45;11.02;;;;;;;18.86;75.84;100136.72;4974090;28;20042;-78
2021/06/22 02:48:41;;;;;;;9.93;8.93;;;;;;;18.89;75.64;100140.13;4941891;28;20439;-78
2021/06/22 02:51:09;;;;;;;11.52;10.18;;;;;;;18.96;75.36;100138.00;4974242;28;20061;-78
2021/06/22 02:53:41;;;;;;;12.18;10.93;;;;;;;19.03;75.04;100144.81;4967253;28;20482;-78
2021/06/22 02:56:07;;;;;;;11.23;9.68;;;;;;;19.00;74.76;100134.28;4959409;28;20030;-78
2021/06/22 02:58:36;;;;;;;12.30;10.90;;;;;;;18.98;75.16;100136.13;4960716;28;20426;-78
2021/06/22 03:01:03;;;;;;;11.05;9.48;;;;;;;18.98;75.42;100142.34;4961002;28;20039;-78
2021/06/22 03:03:29;;;;;;;11.98;10.52;;;;;;;18.90;75.21;100136.50;4960343;28;20601;-78
2021/06/22 03:06:06;;;;;;;11.82;10.50;;;;;;;18.82;75.42;100136.84;4956259;28;20052;-78
2021/06/22 03:08:45;;;;;;;16.88;11.18;;;;;;;18.83;75.62;100138.56;4960484;28;20117;-78
2021/06/22 03:11:11;;;;;;;13.10;11.23;;;;;;;18.87;75.46;100143.81;4959681;28;20070;-78
2021/06/22 03:13:39;;;;;;;11.50;10.10;;;;;;;18.89;75.30;100153.50;4960287;28;20026;-78
2021/06/22 03:16:11;;;;;;;12.50;10.88;;;;;;;18.90;74.82;100170.41;4955701;28;20031;-78
2021/06/22 03:18:36;;;;;;;11.43;10.18;;;;;;;18.91;75.26;100181.00;4959977;28;20119;-78
2021/06/22 03:21:08;;;;;;;14.03;10.43;;;;;;;18.83;75.20;100194.72;4958969;28;20031;-78
2021/06/22 03:23:34;;;;;;;11.13;9.88;;;;;;;18.75;75.42;100188.88;4959250;28;20278;-78
2021/06/22 03:25:59;;;;;;;14.68;11.32;;;;;;;18.76;75.40;100206.66;4959420;28;20037;-78
2021/06/22 03:28:26;;;;;;;14.07;10.20;;;;;;;18.76;75.25;100206.66;4960250;28;20482;-78
2021/06/22 03:31:20;;;;;;;12.73;10.25;;;;;;;18.69;74.95;100202.47;4955769;28;20537;-78
2021/06/22 03:33:46;;;;;;;12.65;10.13;;;;;;;18.72;74.90;100205.00;4959434;28;20043;-78
2021/06/22 03:36:11;;;;;;;10.65;9.15;;;;;;;18.69;75.10;100204.28;4963482;28;20540;-78
2021/06/22 03:38:37;;;;;;;11.60;10.07;;;;;;;18.67;75.19;100204.34;4957093;28;20034;-78
2021/06/22 03:41:03;;;;;;;10.50;9.30;;;;;;;18.70;74.80;100200.66;4960301;28;20034;-78
2021/06/22 03:43:29;;;;;;;11.48;10.30;;;;;;;18.70;74.96;100217.56;4958972;28;20414;-78
2021/06/22 03:45:56;;;;;;;12.75;10.95;;;;;;;18.75;74.06;100215.59;4960103;28;20086;-78
2021/06/22 03:48:23;;;;;;;13.13;9.75;;;;;;;18.55;74.86;100210.25;4977407;28;20046;-78
2021/06/22 03:50:48;;;;;;;9.88;8.85;;;;;;;18.51;74.58;100216.66;4960500;28;20031;-78
2021/06/22 03:53:14;;;;;;;11.10;8.70;;;;;;;18.31;74.47;100213.06;4959246;28;20050;-78
2021/06/22 03:55:39;;;;;;;9.88;8.10;;;;;;;18.27;74.80;100224.81;4967653;28;20034;-78
2021/06/22 03:58:12;;;;;;;11.30;9.00;;;;;;;18.32;74.62;100222.81;4976630;28;20142;-78
2021/06/22 04:00:41;;;;;;;11.10;8.45;;;;;;;18.29;74.37;100219.41;4966069;28;20049;-78
2021/06/22 04:03:13;;;;;;;9.75;8.75;;;;;;;18.27;74.52;100219.47;4943140;28;20166;-78
2021/06/22 04:05:42;;;;;;;20.17;8.65;;;;;;;18.25;74.59;100221.31;4968476;28;20035;-79
2021/06/22 04:08:19;;;;;;;10.20;8.55;;;;;;;18.26;74.10;100212.41;4974574;28;20094;-78
2021/06/22 04:10:47;;;;;;;9.40;7.93;;;;;;;18.21;74.73;100222.41;4948426;28;20122;-78
2021/06/22 04:13:12;;;;;;;10.88;9.18;;;;;;;18.08;74.93;100208.69;4957344;28;20035;-77
2021/06/22 04:15:38;;;;;;;12.02;8.38;;;;;;;18.07;75.29;100200.75;4956812;28;20583;-77
2021/06/22 04:18:06;;;;;;;10.07;7.65;;;;;;;18.06;75.32;100201.69;4942194;28;20035;-77
2021/06/22 04:20:33;;;;;;;11.70;8.98;;;;;;;18.08;75.16;100202.50;4974262;28;20041;-77
2021/06/22 04:23:00;;;;;;;12.38;9.82;;;;;;;17.95;75.54;100228.84;4956910;28;20039;-78
2021/06/22 04:25:26;;;;;;;14.27;11.35;;;;;;;17.73;76.82;100223.47;4956511;28;20121;-77
2021/06/22 04:27:52;;;;;;;15.15;10.68;;;;;;;17.55;77.92;100218.88;4973983;28;20057;-77
2021/06/22 04:30:18;;;;;;;13.20;11.38;;;;;;;17.43;78.98;100220.25;4974073;28;20081;-77
2021/06/22 04:32:44;;;;;;;14.30;11.18;;;;;;;17.40;78.86;100242.56;4973971;28;20066;-77
2021/06/22 04:35:10;;;;;;;14.90;10.90;;;;;;;17.37;79.34;100237.34;4956459;28;20078;-77
2021/06/22 04:37:35;;;;;;;13.48;10.80;;;;;;;17.33;79.34;100254.41;4973865;28;20026;-77
2021/06/22 04:40:01;;;;;;;12.85;9.85;;;;;;;17.27;79.60;100249.31;4973801;28;20058;-77
2021/06/22 04:42:26;;;;;;;12.93;9.48;;;;;;;17.23;79.42;100271.66;4973828;28;20114;-77
2021/06/22 04:44:52;;;;;;;13.90;9.73;;;;;;;17.17;80.26;100269.25;4973490;28;20105;-77
2021/06/22 04:47:17;;;;;;;12.00;9.32;;;;;;;17.08;80.79;100271.34;4956307;28;20042;-77
2021/06/22 04:49:43;;;;;;;11.68;8.70;;;;;;;17.00;80.48;100276.09;4973379;28;20050;-77
2021/06/22 04:52:11;;;;;;;12.23;8.85;;;;;;;16.96;81.21;100271.78;4973671;28;20046;-77
2021/06/22 04:54:39;;;;;;;12.18;8.63;;;;;;;17.07;80.16;100282.91;4956067;28;20069;-77
2021/06/22 04:57:05;;;;;;;11.70;8.02;;;;;;;17.08;79.72;100287.34;4973417;28;20041;-77
2021/06/22 04:59:34;;;;;;;10.35;7.45;;;;;;;17.12;79.87;100292.53;4955982;28;20418;-77
2021/06/22 05:02:00;;;;;;;9.73;7.60;;;;;;;17.16;79.51;100296.81;4956142;28;20423;-77
2021/06/22 05:04:25;;;;;;;9.27;7.35;;;;;;;17.23;78.93;100293.00;4973111;28;20027;-77
2021/06/22 05:06:51;;;;;;;9.90;6.68;;;;;;;17.28;78.87;100291.03;4955939;28;20628;-77
2021/06/22 05:09:16;;;;;;;9.80;6.45;;;;;;;17.40;78.04;100298.59;4973553;28;20035;-77
2021/06/22 05:11:41;;;;;;;7.63;6.07;;;;;;;17.49;77.40;100294.69;4973419;28;20113;-77
2021/06/22 05:14:07;;;;;;;8.70;6.18;;;;;;;17.64;76.29;100298.56;4973192;28;20411;-77
2021/06/22 05:16:32;;;;;;;7.38;6.03;;;;;;;17.69;75.97;100294.78;4972689;28;20416;-77
2021/06/22 05:18:58;;;;;;;8.10;5.47;;;;;;;17.66;75.96;100288.72;4955782;28;20122;-77
2021/06/22 05:21:23;;;;;;;7.18;4.82;;;;;;;17.55;75.73;100277.56;4939997;28;20034;-77
2021/06/22 05:23:48;;;;;;;7.88;5.28;;;;;;;17.45;75.70;100267.28;4955532;28;20134;-77
2021/06/22 05:26:14;;;;;;;8.48;4.63;;;;;;;17.33;77.62;100257.06;4955286;28;20152;-77
2021/06/22 05:28:39;;;;;;;6.70;5.25;;;;;;;17.15;78.44;100263.09;4955461;28;20042;-77
2021/06/22 05:31:04;;;;;;;6.93;5.40;;;;;;;16.85;80.51;100260.66;4966973;28;20034;-76
2021/06/22 05:33:30;;;;;;;7.47;5.20;;;;;;;16.64;81.58;100257.78;4955564;28;20110;-77
2021/06/22 05:35:55;;;;;;;11.18;7.00;;;;;;;16.49;83.12;100258.31;4955174;28;20027;-77
2021/06/22 05:38:21;;;;;;;8.90;6.60;;;;;;;16.36;84.59;100265.00;4973979;28;20044;-77
2021/06/22 05:40:46;;;;;;;11.75;6.53;;;;;;;16.28;85.70;100264.38;4957656;28;20042;-78
2021/06/22 05:43:11;;;;;;;7.68;6.07;;;;;;;16.25;85.79;100280.47;4974086;28;20507;-79
2021/06/22 05:45:37;;;;;;;8.85;7.10;;;;;;;16.20;85.90;100289.47;4975948;28;20043;-78
2021/06/22 05:48:03;;;;;;;8.10;5.90;;;;;;;16.14;86.52;100289.69;4976161;28;20041;-79
2021/06/22 05:50:29;;;;;;;9.45;6.47;;;;;;;16.28;86.49;100296.34;4975112;28;20407;-79
2021/06/22 05:52:55;;;;;;;10.05;6.60;;;;;;;16.31;86.61;100293.56;4960840;28;20043;-79
2021/06/22 05:55:22;;;;;;;9.73;6.93;;;;;;;16.39;86.87;100296.84;4976842;28;20123;-79
2021/06/22 05:57:50;;;;;;;8.93;6.93;;;;;;;16.42;86.57;100299.41;4977333;28;20031;-78
2021/06/22 06:00:17;;;;;;;7.93;6.45;;;;;;;16.41;87.38;100303.00;4976853;28;20109;-79
2021/06/22 06:02:43;;;;;;;10.75;7.57;;;;;;;16.47;86.80;100294.78;4976374;28;20078;-79
2021/06/22 06:05:09;;;;;;;8.57;7.15;;;;;;;16.52;87.02;100300.84;4977070;28;20046;-79
2021/06/22 06:07:36;;;;;;;8.05;7.00;;;;;;;16.39;87.27;100299.50;4958649;28;20039;-78
2021/06/22 06:10:05;;;;;;;9.43;7.05;;;;;;;16.39;86.86;100289.72;4957895;28;20063;-78
2021/06/22 06:12:31;;;;;;;7.22;6.43;;;;;;;16.42;87.01;100291.41;4948668;28;20039;-79
2021/06/22 06:14:56;;;;;;;9.27;7.07;;;;;;;16.43;87.20;100295.84;4957849;28;20038;-79
2021/06/22 06:17:22;;;;;;;8.23;6.07;;;;;;;16.47;87.36;100297.44;4941212;28;20034;-78
2021/06/22 06:19:47;;;;;;;11.45;6.93;;;;;;;16.55;87.33;100300.72;4973543;28;20084;-78
2021/06/22 06:22:13;;;;;;;9.60;7.15;;;;;;;16.55;87.27;100306.06;4973713;28;20074;-78
2021/06/22 06:24:39;;;;;;;7.85;6.30;;;;;;;16.57;86.88;100295.34;4973681;28;20046;-78
2021/06/22 06:27:13;;;;;;;11.13;8.15;;;;;;;16.56;87.52;100296.28;4956130;28;20053;-78
2021/06/22 06:30:00;;;;;;;13.48;8.73;;;;;;;16.62;87.62;100280.06;4968816;28;20038;-78
2021/06/22 06:32:25;;;;;;;9.82;7.05;;;;;;;16.70;87.99;100279.81;4977774;28;20042;-79
2021/06/22 06:34:51;;;;;;;8.32;7.20;;;;;;;16.77;87.39;100278.69;4960194;28;20039;-78
2021/06/22 06:37:16;;;;;;;9.63;7.78;;;;;;;16.76;86.93;100274.25;4977724;28;20614;-78
2021/06/22 06:39:43;;;;;;;7.95;7.00;;;;;;;16.72;86.91;100267.31;4960349;28;20253;-78
2021/06/22 06:42:09;;;;;;;9.60;8.43;;;;;;;16.71;87.43;100274.41;4960011;28;20118;-78
2021/06/22 06:44:34;;;;;;;8.05;6.90;;;;;;;16.81;87.67;100265.19;4977083;28;20121;-78
2021/06/22 06:46:59;;;;;;;8.75;6.25;;;;;;;16.94;87.08;100254.97;4959700;28;20114;-78
2021/06/22 06:49:25;;;;;;;6.90;6.07;;;;;;;17.13;86.46;100255.13;4976784;28;20549;-78
2021/06/22 06:51:50;;;;;;;7.68;6.00;;;;;;;17.13;85.81;100265.81;4959313;28;20035;-77
2021/06/22 06:54:16;;;;;;;8.65;5.80;;;;;;;17.13;85.70;100271.13;4959016;28;20748;-78
2021/06/22 06:56:41;;;;;;;8.32;6.53;;;;;;;17.06;86.17;100270.50;4976217;28;20030;-78
2021/06/22 06:59:07;;;;;;;7.70;6.35;;;;;;;17.20;86.21;100274.47;4959015;28;20046;-78
2021/06/22 07:01:32;;;;;;;7.45;5.63;;;;;;;17.13;85.72;100272.94;4976189;28;20121;-78
2021/06/22 07:03:59;;;;;;;6.90;6.20;;;;;;;17.00;86.23;100284.09;4976098;28;20414;-78
2021/06/22 07:06:24;;;;;;;6.63;5.68;;;;;;;17.04;85.97;100291.03;4975795;28;20043;-78
2021/06/22 07:08:49;;;;;;;7.60;5.78;;;;;;;17.17;86.05;100293.25;4976190;28;20125;-78
2021/06/22 07:11:18;;;;;;;8.27;7.03;;;;;;;17.14;86.23;100288.91;4958685;28;20037;-78
2021/06/22 07:13:44;;;;;;;8.43;5.85;;;;;;;17.10;85.89;100297.91;4975642;28;20487;-78
2021/06/22 07:16:09;;;;;;;9.70;7.20;;;;;;;17.29;85.58;100298.09;4975515;28;20046;-78
2021/06/22 07:18:35;;;;;;;8.43;6.68;;;;;;;17.42;85.12;100304.75;4958577;28;20035;-78
2021/06/22 07:21:00;;;;;;;7.90;6.55;;;;;;;17.53;85.01;100301.66;4975996;28;20035;-78
2021/06/22 07:23:26;;;;;;;10.15;7.07;;;;;;;17.69;84.84;100309.94;4958569;28;20042;-78
2021/06/22 07:25:53;;;;;;;6.95;5.45;;;;;;;17.74;83.65;100311.50;4967996;28;20031;-78
2021/06/22 07:28:18;;;;;;;12.45;8.00;;;;;;;17.66;84.80;100315.41;4975873;28;20039;-78
2021/06/22 07:30:44;;;;;;;8.32;6.90;;;;;;;17.69;83.03;100312.59;4975625;28;20034;-78
2021/06/22 07:33:09;;;;;;;11.20;7.72;;;;;;;17.66;83.16;100312.72;4958415;28;20045;-78
2021/06/22 07:35:35;;;;;;;11.93;6.70;;;;;;;17.66;83.19;100318.06;4958103;28;20039;-78
2021/06/22 07:38:00;;;;;;;9.68;6.82;;;;;;;17.69;82.39;100308.13;4975503;28;20031;-78
2021/06/22 07:40:26;;;;;;;9.25;7.00;;;;;;;17.65;82.61;100310.97;4964352;28;20502;-78
2021/06/22 07:42:53;;;;;;;8.50;7.15;;;;;;;17.65;82.32;100305.63;4975492;28;20488;-78
2021/06/22 07:45:19;;;;;;;8.75;7.53;;;;;;;17.63;82.46;100302.16;4958141;28;20045;-78
2021/06/22 07:47:44;;;;;;;10.40;7.78;;;;;;;17.61;82.94;100309.38;4958022;28;20062;-78
2021/06/22 07:50:11;;;;;;;10.43;7.97;;;;;;;17.62;82.47;100311.09;4957946;28;20031;-78
2021/06/22 07:52:37;;;;;;;11.45;8.57;;;;;;;17.59;82.38;100301.41;4975350;28;20034;-78
2021/06/22 07:55:04;;;;;;;10.20;8.27;;;;;;;17.61;83.08;100310.22;4957848;28;20129;-78
2021/06/22 07:57:29;;;;;;;8.65;7.75;;;;;;;17.71;82.35;100322.28;4975518;28;20406;-78
2021/06/22 07:59:54;;;;;;;10.85;8.48;;;;;;;17.71;81.51;100321.41;4975066;28;20109;-78
2021/06/22 08:02:20;;;;;;;8.88;7.95;;;;;;;17.77;80.72;100321.19;4957800;28;20403;-78
2021/06/22 08:04:45;;;;;;;11.98;8.75;;;;;;;17.85;81.55;100324.44;4974698;28;20026;-78
2021/06/22 08:07:10;;;;;;;10.75;7.70;;;;;;;17.87;81.49;100332.41;4975408;28;20137;-78
2021/06/22 08:09:36;;;;;;;10.88;7.70;;;;;;;17.94;81.36;100334.75;4974838;28;20047;-78
2021/06/22 08:12:01;;;;;;;9.80;7.68;;;;;;;17.95;80.80;100339.19;4975127;28;20089;-78
2021/06/22 08:14:27;;;;;;;7.93;6.50;;;;;;;17.92;81.09;100328.63;4957278;28;20075;-78
2021/06/22 08:16:52;;;;;;;10.02;7.78;;;;;;;17.95;80.91;100332.97;4975781;28;20038;-79
2021/06/22 08:19:18;;;;;;;9.73;7.28;;;;;;;18.04;80.55;100334.41;4975991;28;20042;-79
2021/06/22 08:21:43;;;;;;;9.35;7.38;;;;;;;18.03;80.00;100338.00;4958159;28;20181;-78
2021/06/22 08:24:09;;;;;;;11.32;8.07;;;;;;;18.05;80.12;100347.69;4975242;28;20046;-78
2021/06/22 08:26:34;;;;;;;9.15;7.45;;;;;;;18.24;80.06;100349.63;4975200;28;20038;-78
2021/06/22 08:29:01;;;;;;;7.18;6.47;;;;;;;18.34;79.16;100349.19;4942114;28;20528;-78
2021/06/22 08:31:26;;;;;;;8.15;6.38;;;;;;;18.39;77.96;100355.22;4958338;28;20042;-78
2021/06/22 08:33:51;;;;;;;6.85;6.15;;;;;;;18.27;78.09;100371.72;4975326;28;20400;-78
2021/06/22 08:36:17;;;;;;;7.95;6.25;;;;;;;18.10;78.19;100367.06;4974945;28;20085;-78
2021/06/22 08:38:42;;;;;;;7.60;6.40;;;;;;;18.19;78.54;100365.84;4975235;28;20043;-78
2021/06/22 08:41:09;;;;;;;6.50;5.75;;;;;;;18.28;78.12;100375.25;4975040;28;20069;-78
2021/06/22 08:43:34;;;;;;;7.20;4.97;;;;;;;18.37;78.47;100365.09;4958193;28;20042;-78
2021/06/22 08:46:05;;;;;;;6.10;4.80;;;;;;;18.50;77.82;100375.28;4966745;28;20137;-78
2021/06/22 08:48:31;;;;;;;5.78;5.18;;;;;;;18.45;77.91;100377.28;4974760;28;20035;-79
2021/06/22 08:50:56;;;;;;;7.18;5.25;;;;;;;18.44;77.27;100383.53;4974951;28;20464;-78
2021/06/22 08:53:22;;;;;;;7.07;5.55;;;;;;;18.38;76.61;100390.84;4974568;28;20617;-78
2021/06/22 08:55:48;;;;;;;8.57;4.93;;;;;;;18.21;76.71;100392.47;4974422;28;20070;-78
2021/06/22 08:58:18;;;;;;;5.50;4.68;;;;;;;18.10;77.81;100392.88;4957267;28;20035;-78
2021/06/22 09:00:54;;;;;;;7.07;5.07;;;;;;;18.07;77.69;100393.03;4967313;28;20691;-78
2021/06/22 09:03:26;;;;;;;6.03;4.40;;;;;;;18.15;77.82;100398.91;4973456;28;20034;-78
2021/06/22 09:05:55;;;;;;;;;;;;;;;17.99;77.55;100400.47;4957521;28;20471;-78
2021/06/22 09:08:26;;;;;;;7.00;4.65;;;;;;;18.04;77.96;100394.00;4942545;28;19914;-78
2021/06/22 09:10:54;;;;;;;4.93;4.13;;;;;;;18.08;76.70;100394.78;4974108;28;20041;-78
2021/06/22 09:13:25;;;;;;;6.25;4.88;;;;;;;18.06;77.33;100407.31;4957564;28;20043;-78
2021/06/22 09:15:52;;;;;;;9.07;4.68;;;;;;;18.10;76.84;100408.91;4974026;28;20055;-78
2021/06/22 09:18:25;;;;;;;7.68;4.07;;;;;;;18.21;75.74;100404.03;4974440;28;20455;-78
2021/06/22 09:20:52;;;;;;;6.00;3.95;;;;;;;18.29;75.72;100401.06;4953837;28;20038;-78
2021/06/22 09:23:24;;;;;;;6.85;3.60;;;;;;;18.34;75.45;100409.78;4956750;28;20073;-78
2021/06/22 09:25:52;;;;;;;5.00;3.22;;;;;;;18.47;75.24;100404.78;4956327;28;20037;-78
2021/06/22 09:28:21;;;;;;;5.05;3.20;;;;;;;18.53;74.54;100405.41;4973806;28;20043;-78
2021/06/22 09:30:55;;;;;;;4.72;3.13;;;;;;;18.64;74.84;100406.75;4967270;28;20043;-78
2021/06/22 09:33:41;;;;;;;5.40;3.65;;;;;;;18.71;73.82;100401.09;4956522;28;20050;-78
2021/06/22 09:36:11;;;;;;;5.20;3.63;;;;;;;18.92;73.13;100409.19;4963912;28;20035;-78
2021/06/22 09:38:39;;;;;;;5.07;2.95;;;;;;;18.97;72.72;100423.25;4973688;28;20034;-78
2021/06/22 09:41:09;;;;;;;6.15;3.17;;;;;;;19.04;72.30;100424.69;4973514;28;20038;-78
2021/06/22 09:43:49;;;;;;;3.72;2.65;;;;;;;19.04;72.47;100427.38;4973438;28;20159;-78
2021/06/22 09:46:17;;;;;;;4.53;2.97;;;;;;;19.09;71.54;100428.03;4973287;28;20479;-78
2021/06/22 09:49:01;;;;;;;4.72;2.78;;;;;;;18.94;72.36;100428.69;4956353;28;20050;-78
2021/06/22 09:51:34;;;;;;;4.55;3.03;;;;;;;18.94;72.51;100439.38;4962494;28;20043;-79
2021/06/22 09:54:17;;;;;;;4.75;3.30;;;;;;;18.89;71.12;100426.22;4973471;28;20046;-78
2021/06/22 09:56:53;;;;;;;4.80;3.15;;;;;;;19.07;71.50;100432.59;4971256;28;20031;-77
2021/06/22 09:59:19;;;;;;;6.35;3.25;;;;;;;18.99;71.30;100421.34;4973296;28;20058;-78
2021/06/22 10:01:44;;;;;;;6.88;2.90;;;;;;;19.09;71.61;100420.00;4939825;28;20472;-78
2021/06/22 10:04:18;;;;;;;9.93;3.45;;;;;;;19.09;71.00;100417.34;4955053;28;20038;-77
2021/06/22 10:06:52;;;;;;;4.78;3.15;;;;;;;19.07;70.88;100411.19;4972877;28;20411;-78
2021/06/22 10:09:23;;;;;;;6.15;3.13;;;;;;;18.95;71.80;100414.41;4956748;28;20486;-78
2021/06/22 10:11:57;;;;;;;4.95;3.17;;;;;;;19.02;71.60;100413.19;4972440;28;20031;-78
2021/06/22 10:14:35;;;;;;;5.10;2.88;;;;;;;19.23;70.78;100408.72;4976097;28;20042;-78
2021/06/22 10:17:06;;;;;;;4.68;2.83;;;;;;;19.38;70.54;100412.53;4946075;28;20035;-79
2021/06/22 10:19:32;;;;;;;4.95;2.80;;;;;;;19.32;69.42;100402.97;4959668;28;20036;-78
2021/06/22 10:21:59;;;;;;;4.75;2.50;;;;;;;19.51;69.45;100403.00;4976356;28;20037;-78
2021/06/22 10:24:25;;;;;;;3.75;2.53;;;;;;;19.80;68.84;100398.16;4974979;28;20105;-78
2021/06/22 10:26:53;;;;;;;5.25;3.00;;;;;;;20.04;67.44;100397.03;4976077;28;20492;-79
2021/06/22 10:29:21;;;;;;;5.60;3.10;;;;;;;20.01;66.91;100389.09;4958503;28;20038;-79
2021/06/22 10:31:48;;;;;;;4.70;2.97;;;;;;;20.00;66.42;100395.41;4942872;28;20043;-78
2021/06/22 10:34:14;;;;;;;4.15;2.85;;;;;;;19.88;66.77;100386.13;4974644;28;20054;-79
2021/06/22 10:37:03;;;;;;;5.50;2.50;;;;;;;19.94;66.44;100390.38;4975731;28;20077;-79
2021/06/22 10:39:33;;;;;;;3.70;2.33;;;;;;;19.91;67.69;100394.06;4963779;28;20085;-78
2021/06/22 10:42:07;;;;;;;3.53;2.00;;;;;;;19.86;67.72;100397.91;4976100;28;20038;-79
2021/06/22 10:44:33;;;;;;;3.25;1.80;;;;;;;19.87;67.74;100413.00;4975480;28;20043;-79
2021/06/22 10:47:31;;;;;;;3.47;1.50;;;;;;;19.80;65.93;100411.53;4956845;28;20074;-78
2021/06/22 10:50:18;;;;;;;4.18;1.90;;;;;;;19.50;66.45;100422.69;4971900;28;20038;-78
2021/06/22 10:52:43;;;;;;;3.50;1.60;;;;;;;19.36;67.58;100425.09;4947044;28;20054;-78
2021/06/22 10:55:22;;;;;;;4.47;2.60;;;;;;;19.30;67.53;100420.03;4957908;28;20034;-79
2021/06/22 10:57:54;;;;;;;9.27;3.13;;;;;;;19.20;67.97;100431.16;4974092;28;20038;-78
2021/06/22 11:00:19;;;;;;;4.20;2.67;;;;;;;19.25;68.67;100422.88;4975169;28;20463;-78
2021/06/22 11:03:04;;;;;;;3.78;2.50;;;;;;;19.39;68.00;100428.53;4958285;28;20077;-78
2021/06/22 11:05:35;;;;;;;4.63;2.30;;;;;;;19.44;67.55;100429.19;4974628;28;20039;-78
2021/06/22 11:08:16;;;;;;;4.85;2.50;;;;;;;19.40;68.17;100426.72;4972038;28;20043;-78
2021/06/22 11:10:47;;;;;;;3.60;1.92;;;;;;;19.44;68.11;100428.28;4957473;28;20034;-78
2021/06/22 11:13:34;;;;;;;3.38;2.10;;;;;;;19.35;68.15;100428.72;4971045;28;20042;-78
2021/06/22 11:16:02;;;;;;;4.07;1.98;;;;;;;19.30;68.73;100428.91;4959862;28;20109;-78
2021/06/22 11:18:53;;;;;;;4.28;2.03;;;;;;;19.38;68.03;100436.59;4973683;28;20088;-78
2021/06/22 11:21:20;;;;;;;4.40;2.10;;;;;;;19.15;68.86;100438.50;4951975;28;20046;-78
2021/06/22 11:24:00;;;;;;;5.25;2.33;;;;;;;19.08;68.19;100449.53;4978536;28;20042;-78
2021/06/22 11:26:26;;;;;;;3.08;2.05;;;;;;;19.02;69.18;100448.84;4977955;28;20399;-78